createdAt,value
2022-10-12T00:00:50.104Z,3.03
2022-10-12T00:03:53.124Z,3.10
2022-10-12T00:06:55.137Z,3.30
2022-10-12T00:09:58.221Z,3.03
2022-10-12T00:13:00.973Z,3.40
2022-10-12T00:16:07.967Z,3.90
2022-10-12T00:19:13.518Z,2.60
2022-10-12T00:22:15.478Z,3.23
2022-10-12T00:25:17.739Z,3.13
2022-10-12T00:28:19.635Z,5.20
2022-10-12T00:31:21.741Z,3.63
2022-10-12T00:34:23.652Z,3.33
2022-10-12T00:37:25.652Z,3.20
2022-10-12T00:40:27.637Z,2.77
2022-10-12T00:43:34.875Z,3.13
2022-10-12T00:46:39.904Z,2.70
2022-10-12T00:49:43.258Z,2.60
2022-10-12T00:52:54.063Z,2.73
2022-10-12T00:56:00.612Z,3.27
2022-10-12T00:59:05.908Z,2.73
2022-10-12T01:02:08.173Z,4.27
2022-10-12T01:05:10.992Z,3.20
2022-10-12T01:08:12.901Z,3.43
2022-10-12T01:11:14.772Z,2.93
2022-10-12T01:14:17.784Z,2.63
2022-10-12T01:17:44.497Z,3.20
2022-10-12T01:20:54.454Z,2.97
2022-10-12T01:24:11.595Z,2.77
2022-10-12T01:27:47.164Z,2.93
2022-10-12T01:30:52.323Z,3.00
2022-10-12T01:33:58.472Z,3.00
2022-10-12T01:37:18.523Z,3.03
2022-10-12T01:40:27.775Z,3.33
2022-10-12T01:43:43.856Z,2.90
2022-10-12T01:46:47.237Z,2.80
2022-10-12T01:49:49.472Z,2.60
2022-10-12T01:53:13.681Z,3.17
2022-10-12T01:56:32.311Z,3.67
2022-10-12T01:59:37.211Z,2.53
2022-10-12T02:02:53.238Z,2.70
2022-10-12T02:06:01.566Z,2.80
2022-10-12T02:09:11.955Z,2.70
2022-10-12T02:12:18.188Z,3.30
2022-10-12T02:15:21.349Z,3.10
2022-10-12T02:18:24.782Z,3.20
2022-10-12T02:21:36.415Z,2.87
2022-10-12T02:24:41.187Z,2.80
2022-10-12T02:32:33.708Z,3.10
2022-10-12T02:35:40.271Z,2.83
2022-10-12T02:38:49.164Z,3.10
2022-10-12T02:41:56.023Z,2.50
2022-10-12T02:44:59.767Z,2.93
2022-10-12T02:48:02.242Z,2.90
2022-10-12T02:51:05.089Z,2.53
2022-10-12T02:54:07.033Z,2.70
2022-10-12T02:57:09.214Z,2.97
2022-10-12T03:00:11.794Z,2.80
2022-10-12T03:03:14.143Z,3.10
2022-10-12T03:06:16.118Z,3.23
2022-10-12T03:09:18.093Z,3.83
2022-10-12T03:12:20.013Z,2.50
2022-10-12T03:15:22.438Z,3.10
2022-10-12T03:18:25.063Z,2.90
2022-10-12T03:21:27.087Z,3.00
2022-10-12T03:24:28.937Z,2.63
2022-10-12T03:27:31.178Z,2.97
2022-10-12T03:30:33.073Z,3.00
2022-10-12T03:33:35.149Z,3.80
2022-10-12T03:36:36.978Z,3.00
2022-10-12T03:39:39.009Z,3.07
2022-10-12T03:42:40.909Z,3.00
2022-10-12T03:45:42.907Z,2.93
2022-10-12T03:48:44.799Z,3.77
2022-10-12T03:51:46.784Z,3.23
2022-10-12T03:54:48.679Z,3.83
2022-10-12T03:57:51.464Z,3.70
2022-10-12T04:01:05.894Z,3.30
2022-10-12T04:04:08.173Z,3.00
2022-10-12T04:07:10.093Z,3.40
2022-10-12T04:10:12.304Z,4.20
2022-10-12T04:13:14.163Z,4.33
2022-10-12T04:16:16.622Z,4.47
2022-10-12T04:19:18.553Z,4.53
2022-10-12T04:22:20.521Z,4.40
2022-10-12T04:25:29.154Z,6.83
2022-10-12T04:28:32.544Z,4.47
2022-10-12T04:31:34.443Z,5.00
2022-10-12T04:34:37.217Z,6.43
2022-10-12T04:37:40.074Z,6.07
2022-10-12T04:40:46.599Z,5.33
2022-10-12T04:43:49.079Z,5.67
2022-10-12T04:46:50.934Z,4.80
2022-10-12T04:49:52.838Z,5.10
2022-10-12T04:52:54.739Z,5.13
2022-10-12T04:55:56.671Z,5.97
2022-10-12T04:58:58.565Z,5.67
2022-10-12T05:02:01.164Z,6.27
2022-10-12T05:05:03.185Z,6.67
2022-10-12T05:08:05.675Z,10.83
2022-10-12T05:11:07.603Z,11.77
2022-10-12T05:14:10.073Z,9.03
2022-10-12T05:17:12.037Z,10.80
2022-10-12T05:20:14.053Z,11.00
2022-10-12T05:23:15.989Z,9.57
2022-10-12T05:26:18.816Z,8.37
2022-10-12T05:29:20.651Z,14.00
2022-10-12T05:32:22.659Z,13.20
2022-10-12T05:35:25.190Z,13.97
2022-10-12T05:38:27.143Z,14.37
2022-10-12T05:41:28.955Z,11.50
2022-10-12T05:44:31.028Z,11.10
2022-10-12T05:47:32.861Z,13.33
2022-10-12T05:50:34.965Z,15.70
2022-10-12T05:53:38.154Z,15.33
2022-10-12T05:56:40.364Z,16.17
2022-10-12T05:59:42.983Z,16.07
2022-10-12T06:02:44.879Z,15.40
2022-10-12T06:05:46.759Z,15.23
2022-10-12T06:08:49.168Z,14.43
2022-10-12T06:11:51.177Z,14.13
2022-10-12T06:14:53.494Z,13.63
2022-10-12T06:17:55.866Z,15.13
2022-10-12T06:24:19.983Z,12.43
2022-10-12T06:27:22.202Z,11.47
2022-10-12T06:30:24.152Z,10.40
2022-10-12T06:33:28.025Z,13.87
2022-10-12T06:36:29.984Z,10.67
2022-10-12T06:39:32.103Z,11.03
2022-10-12T06:42:34.013Z,10.67
2022-10-12T06:45:36.868Z,9.97
2022-10-12T06:48:38.745Z,11.07
2022-10-12T06:51:41.354Z,12.80
2022-10-12T06:54:43.339Z,11.63
2022-10-12T06:57:45.309Z,13.07
2022-10-12T07:00:47.491Z,14.03
2022-10-12T07:03:50.157Z,13.30
2022-10-12T07:06:52.077Z,12.70
2022-10-12T07:09:54.050Z,13.43
2022-10-12T07:12:56.052Z,13.20
2022-10-12T07:15:58.173Z,13.50
2022-10-12T07:19:00.098Z,12.03
2022-10-12T07:22:02.347Z,12.23
2022-10-12T07:25:04.594Z,11.27
2022-10-12T07:28:06.852Z,12.67
2022-10-12T07:31:10.105Z,11.83
2022-10-12T07:34:11.993Z,12.33
2022-10-12T07:37:15.544Z,11.37
2022-10-12T07:40:17.782Z,12.27
2022-10-12T07:43:19.730Z,11.87
2022-10-12T07:46:21.665Z,11.83
2022-10-12T07:49:23.538Z,12.57
2022-10-12T07:52:28.321Z,12.60
2022-10-12T07:55:32.215Z,11.30
2022-10-12T07:58:34.961Z,9.77
2022-10-12T08:01:36.961Z,9.93
2022-10-12T08:04:38.965Z,10.50
2022-10-12T08:07:41.515Z,10.57
2022-10-12T08:10:43.781Z,10.27
2022-10-12T08:13:46.237Z,10.43
2022-10-12T08:16:49.170Z,10.40
2022-10-12T08:19:51.104Z,11.93
2022-10-12T08:22:54.746Z,11.70
2022-10-12T08:25:57.915Z,10.90
2022-10-12T08:28:59.997Z,7.70
2022-10-12T08:32:02.479Z,6.57
2022-10-12T08:35:05.942Z,6.60
2022-10-12T08:38:08.848Z,6.30
2022-10-12T08:41:25.837Z,6.07
2022-10-12T08:45:01.687Z,6.77
2022-10-12T08:48:19.942Z,5.60
2022-10-12T08:51:26.460Z,5.63
2022-10-12T08:54:38.977Z,5.30
2022-10-12T08:57:44.267Z,5.27
2022-10-12T09:00:55.922Z,5.00
2022-10-12T09:04:13.309Z,5.10
2022-10-12T09:07:24.067Z,4.63
2022-10-12T09:10:47.312Z,5.63
2022-10-12T09:13:52.143Z,5.03
2022-10-12T09:16:56.026Z,5.03
2022-10-12T09:20:27.605Z,6.17
2022-10-12T09:23:38.918Z,5.20
2022-10-12T09:26:41.295Z,5.57
2022-10-12T09:29:47.341Z,6.27
2022-10-12T09:33:06.226Z,7.37
2022-10-12T09:36:10.516Z,6.80
2022-10-12T09:39:34.245Z,7.00
2022-10-12T09:42:36.454Z,7.10
2022-10-12T09:45:38.813Z,6.40
2022-10-12T09:48:57.872Z,6.50
2022-10-12T09:52:00.864Z,5.80
2022-10-12T09:55:11.963Z,5.53
2022-10-12T09:58:20.556Z,5.30
2022-10-12T10:01:28.437Z,5.50
2022-10-12T10:04:31.007Z,4.97
2022-10-12T10:07:35.724Z,6.00
2022-10-12T10:10:38.212Z,6.07
2022-10-12T10:13:50.069Z,5.83
2022-10-12T10:16:53.487Z,5.10
2022-10-12T10:19:56.867Z,6.10
2022-10-12T10:22:59.799Z,6.13
2022-10-12T10:26:07.110Z,5.63
2022-10-12T10:29:22.783Z,4.97
2022-10-12T10:32:29.228Z,4.63
2022-10-12T10:35:31.483Z,4.93
2022-10-12T10:38:48.814Z,4.73
2022-10-12T10:41:50.856Z,6.07
2022-10-12T10:44:59.059Z,4.90
2022-10-12T10:48:10.832Z,5.80
2022-10-12T10:51:12.761Z,6.23
2022-10-12T10:54:27.901Z,5.93
2022-10-12T10:57:29.960Z,5.17
2022-10-12T11:00:39.159Z,5.30
2022-10-12T11:03:59.979Z,6.33
2022-10-12T11:07:08.747Z,4.87
2022-10-12T11:10:29.660Z,4.83
2022-10-12T11:13:39.078Z,4.73
2022-10-12T11:16:46.459Z,5.07
2022-10-12T11:19:53.761Z,5.67
2022-10-12T11:23:06.762Z,4.70
2022-10-12T11:26:15.087Z,5.23
2022-10-12T11:29:18.498Z,7.03
2022-10-12T11:32:28.891Z,6.67
2022-10-12T11:35:35.751Z,6.33
2022-10-12T11:38:45.683Z,7.20
2022-10-12T11:42:16.886Z,6.80
2022-10-12T11:45:26.455Z,7.40
2022-10-12T11:48:38.979Z,11.87
2022-10-12T11:51:44.836Z,7.83
2022-10-12T11:54:52.775Z,7.07
2022-10-12T11:57:56.288Z,7.37
2022-10-12T12:01:29.831Z,6.50
2022-10-12T12:04:42.185Z,6.30
2022-10-12T12:08:00.685Z,7.07
2022-10-12T12:11:05.601Z,8.07
2022-10-12T12:14:46.251Z,8.10
2022-10-12T12:18:12.702Z,9.10
2022-10-12T12:21:16.085Z,9.40
2022-10-12T12:24:19.972Z,8.93
2022-10-12T12:27:48.066Z,8.00
2022-10-12T12:31:16.746Z,7.93
2022-10-12T12:34:20.136Z,8.37
2022-10-12T12:37:24.346Z,9.30
2022-10-12T12:40:27.145Z,9.93
2022-10-12T12:43:29.066Z,9.83
2022-10-12T12:46:53.153Z,9.53
2022-10-12T12:49:57.881Z,8.43
2022-10-12T12:53:17.437Z,9.00
2022-10-12T12:56:46.780Z,10.07
2022-10-12T13:00:16.729Z,10.10
2022-10-12T13:03:56.296Z,9.67
2022-10-12T13:07:30.180Z,9.30
2022-10-12T13:10:41.162Z,9.47
2022-10-12T13:13:55.105Z,9.67
2022-10-12T13:17:35.672Z,10.60
2022-10-12T13:20:33.441Z,10.53
2022-10-12T13:23:35.837Z,10.63
2022-10-12T13:26:37.914Z,10.47
2022-10-12T13:29:46.718Z,15.00
2022-10-12T13:32:48.544Z,13.53
2022-10-12T13:36:04.188Z,12.57
2022-10-12T13:39:16.535Z,13.87
2022-10-12T13:42:24.192Z,13.53
2022-10-12T13:45:26.524Z,13.10
2022-10-12T13:48:57.430Z,12.83
2022-10-12T13:51:55.765Z,13.33
2022-10-12T13:54:58.980Z,14.07
2022-10-12T13:58:00.878Z,13.97
2022-10-12T14:01:04.141Z,13.90
2022-10-12T14:04:06.766Z,13.80
2022-10-12T14:07:18.608Z,14.03
2022-10-12T14:10:35.722Z,13.10
2022-10-12T14:13:38.048Z,12.67
2022-10-12T14:16:39.903Z,13.70
2022-10-12T14:19:56.073Z,12.67
2022-10-12T14:22:59.195Z,11.03
2022-10-12T14:26:01.094Z,12.33
2022-10-12T14:29:28.578Z,11.83
2022-10-12T14:32:41.961Z,12.00
2022-10-12T14:35:48.240Z,11.30
2022-10-12T14:38:53.134Z,11.93
2022-10-12T14:41:57.011Z,10.90
2022-10-12T14:45:00.040Z,12.00
2022-10-12T14:48:03.239Z,11.80
2022-10-12T14:51:06.477Z,11.07
2022-10-12T14:54:10.460Z,11.20
2022-10-12T14:57:15.759Z,10.40
2022-10-12T15:00:26.227Z,10.27
2022-10-12T15:03:28.231Z,8.63
2022-10-12T15:06:30.166Z,9.43
2022-10-12T15:09:32.173Z,10.03
2022-10-12T15:12:34.192Z,10.00
2022-10-12T15:15:43.283Z,10.47
2022-10-12T15:18:45.180Z,8.77
2022-10-12T15:21:48.277Z,9.83
2022-10-12T15:24:51.407Z,10.70
2022-10-12T15:27:53.372Z,10.30
2022-10-12T15:34:18.143Z,9.60
2022-10-12T15:37:20.122Z,10.83
2022-10-12T15:40:23.139Z,10.40
2022-10-12T15:43:26.075Z,9.80
2022-10-12T15:46:28.207Z,10.57
2022-10-12T15:49:30.213Z,10.27
2022-10-12T15:52:32.628Z,9.87
2022-10-12T15:55:34.594Z,9.93
2022-10-12T15:58:37.119Z,10.97
2022-10-12T16:01:39.301Z,9.70
2022-10-12T16:04:41.612Z,9.90
2022-10-12T16:07:43.528Z,9.40
2022-10-12T16:10:46.505Z,9.60
2022-10-12T16:13:54.051Z,9.00
2022-10-12T16:17:01.273Z,9.60
2022-10-12T16:20:03.888Z,9.57
2022-10-12T16:23:08.376Z,8.90
2022-10-12T16:26:12.926Z,8.53
2022-10-12T16:29:14.935Z,9.30
2022-10-12T16:32:17.097Z,8.83
2022-10-12T16:35:19.387Z,8.13
2022-10-12T16:38:21.256Z,8.83
2022-10-12T16:41:23.422Z,10.97
2022-10-12T16:44:26.133Z,9.27
2022-10-12T16:47:28.513Z,9.13
2022-10-12T16:50:30.462Z,9.47
2022-10-12T16:53:32.980Z,8.20
2022-10-12T16:56:39.154Z,7.83
2022-10-12T16:59:41.747Z,7.40
2022-10-12T17:02:43.686Z,7.17
2022-10-12T17:05:45.707Z,6.93
2022-10-12T17:08:47.632Z,6.50
2022-10-12T17:11:49.658Z,7.70
2022-10-12T17:14:52.326Z,7.87
2022-10-12T17:17:54.922Z,7.27
2022-10-12T17:20:59.940Z,6.73
2022-10-12T17:24:03.131Z,7.20
2022-10-12T17:27:07.688Z,7.13
2022-10-12T17:30:10.183Z,6.83
2022-10-12T17:33:12.076Z,6.57
2022-10-12T17:36:14.646Z,6.70
2022-10-12T17:39:17.849Z,6.53
2022-10-12T17:42:22.296Z,6.30
2022-10-12T17:45:24.206Z,6.40
2022-10-12T17:48:26.197Z,5.73
2022-10-12T17:51:28.287Z,6.07
2022-10-12T17:54:30.577Z,6.50
2022-10-12T17:57:32.487Z,5.93
2022-10-12T18:00:35.289Z,5.83
2022-10-12T18:03:41.423Z,6.33
2022-10-12T18:06:44.281Z,6.33
2022-10-12T18:09:46.240Z,6.20
2022-10-12T18:12:48.246Z,6.07
2022-10-12T18:15:50.092Z,5.83
2022-10-12T18:18:53.688Z,6.00
2022-10-12T18:21:55.698Z,5.83
2022-10-12T18:24:58.173Z,6.20
2022-10-12T18:28:00.018Z,5.73
2022-10-12T18:31:02.440Z,5.93
2022-10-12T18:34:04.486Z,6.27
2022-10-12T18:37:07.167Z,7.03
2022-10-12T18:40:10.278Z,6.87
2022-10-12T18:43:12.667Z,6.60
2022-10-12T18:46:17.312Z,6.97
2022-10-12T18:49:19.843Z,7.43
2022-10-12T18:52:21.828Z,6.40
2022-10-12T18:55:24.247Z,7.00
2022-10-12T18:58:26.167Z,6.87
2022-10-12T19:01:29.526Z,5.90
2022-10-12T19:04:31.455Z,6.43
2022-10-12T19:07:39.047Z,6.23
2022-10-12T19:10:41.767Z,6.07
2022-10-12T19:13:44.238Z,6.50
2022-10-12T19:16:46.378Z,6.20
2022-10-12T19:19:48.847Z,6.43
2022-10-12T19:22:50.856Z,6.53
2022-10-12T19:25:52.927Z,5.87
2022-10-12T19:28:56.048Z,6.30
2022-10-12T19:31:58.124Z,6.67
2022-10-12T19:34:59.977Z,6.50
2022-10-12T19:38:03.506Z,6.50
2022-10-12T19:41:06.063Z,6.47
2022-10-12T19:44:08.763Z,5.80
2022-10-12T19:47:10.757Z,6.27
2022-10-12T19:50:12.712Z,6.07
2022-10-12T19:53:14.993Z,6.37
2022-10-12T19:56:21.127Z,6.27
2022-10-12T19:59:22.986Z,5.80
2022-10-12T20:02:24.947Z,6.80
2022-10-12T20:05:27.019Z,6.67
2022-10-12T20:08:28.989Z,6.70
2022-10-12T20:11:30.953Z,5.87
2022-10-12T20:14:33.158Z,6.10
2022-10-12T20:17:37.027Z,5.27
2022-10-12T20:20:43.264Z,6.57
2022-10-12T20:23:45.957Z,5.83
2022-10-12T20:26:47.894Z,6.13
2022-10-12T20:29:49.771Z,6.43
2022-10-12T20:32:55.569Z,6.47
2022-10-12T20:35:57.902Z,5.50
2022-10-12T20:39:01.152Z,6.13
2022-10-12T20:42:03.076Z,5.70
2022-10-12T20:45:05.517Z,5.20
2022-10-12T20:48:07.892Z,5.93
2022-10-12T20:51:14.602Z,5.17
2022-10-12T20:54:18.976Z,6.07
2022-10-12T20:57:20.942Z,5.87
2022-10-12T21:00:23.374Z,5.83
2022-10-12T21:03:26.766Z,6.23
2022-10-12T21:06:29.094Z,5.20
2022-10-12T21:09:31.083Z,5.40
2022-10-12T21:12:32.986Z,5.37
2022-10-12T21:15:34.957Z,5.43
2022-10-12T21:18:38.482Z,4.87
2022-10-12T21:21:40.558Z,5.30
2022-10-12T21:24:42.783Z,4.90
2022-10-12T21:27:44.797Z,6.23
2022-10-12T21:30:46.931Z,5.57
2022-10-12T21:33:48.962Z,5.17
2022-10-12T21:36:50.882Z,5.40
2022-10-12T21:39:54.459Z,5.50
2022-10-12T21:42:56.557Z,5.60
2022-10-12T21:46:04.982Z,5.43
2022-10-12T21:49:08.515Z,5.60
2022-10-12T21:52:10.656Z,5.67
2022-10-12T21:55:12.688Z,6.10
2022-10-12T21:58:14.678Z,5.50
2022-10-12T22:01:22.545Z,5.37
2022-10-12T22:04:24.703Z,6.03
2022-10-12T22:07:26.551Z,4.73
2022-10-12T22:10:28.539Z,5.03
2022-10-12T22:13:30.432Z,5.50
2022-10-12T22:16:34.607Z,6.13
2022-10-12T22:19:36.576Z,5.47
2022-10-12T22:22:38.567Z,4.90
2022-10-12T22:25:40.497Z,4.60
2022-10-12T22:28:42.921Z,4.20
2022-10-12T22:31:46.036Z,4.53
2022-10-12T22:34:48.043Z,4.97
2022-10-12T22:37:50.168Z,5.00
2022-10-12T22:41:00.737Z,4.53
2022-10-12T22:44:02.687Z,4.60
2022-10-12T22:47:04.747Z,5.37
2022-10-12T22:50:07.394Z,5.00
2022-10-12T22:53:09.387Z,5.13
2022-10-12T22:56:18.163Z,4.90
2022-10-12T22:59:20.184Z,4.57
2022-10-12T23:02:22.173Z,5.13
2022-10-12T23:05:24.183Z,5.40
2022-10-12T23:08:27.432Z,4.40
2022-10-12T23:11:30.356Z,4.63
2022-10-12T23:14:32.565Z,4.97
2022-10-12T23:17:34.556Z,5.20
2022-10-12T23:20:39.436Z,4.83
2022-10-12T23:23:42.875Z,4.73
2022-10-12T23:26:44.727Z,4.77
2022-10-12T23:29:47.491Z,5.27
2022-10-12T23:32:49.422Z,4.10
2022-10-12T23:35:58.985Z,5.13
2022-10-12T23:39:02.209Z,4.37
2022-10-12T23:42:04.667Z,4.50
2022-10-12T23:45:07.142Z,4.90
2022-10-12T23:48:09.062Z,4.60
2022-10-12T23:51:11.527Z,4.20
2022-10-12T23:54:13.668Z,4.77
2022-10-12T23:57:41.631Z,4.93
